Time;durP1;ratioP1;P1;durP2;ratioP2;P2;SDS_P1;SDS_P2;PMS_P1;PMS_P2;Temp;Humidity;BMP_temperature;BMP_pressure;BME280_temperature;BME280_humidity;BME280_pressure;Samples;Min_cycle;Max_cycle;Signal;HPM_P1;HPM_P2
2024/01/07 00:00:58;;;;;;;23.52;10.10;;;;;;;;;;5031826;28;20060;-77
2024/01/07 00:03:24;;;;;;;21.13;10.07;;;;;;;;;;5023762;28;20071;-77
2024/01/07 00:05:49;;;;;;;25.30;11.20;;;;;;;;;;5019469;28;20048;-77
2024/01/07 00:08:14;;;;;;;23.35;10.20;;;;;;;;;;5030970;28;20041;-77
2024/01/07 00:10:40;;;;;;;25.58;13.63;;;;;;;;;;5035318;28;20045;-78
2024/01/07 00:13:05;;;;;;;25.38;10.75;;;;;;;;;;5011926;28;20088;-78
2024/01/07 00:15:31;;;;;;;20.58;9.85;;;;;;;;;;5036116;28;20041;-77
2024/01/07 00:17:56;;;;;;;25.95;12.57;;;;;;;;;;5026041;28;20116;-78
2024/01/07 00:20:22;;;;;;;24.08;11.05;;;;;;;;;;5039163;28;20051;-78
2024/01/07 00:22:47;;;;;;;21.25;10.43;;;;;;;;;;5035234;28;20045;-77
2024/01/07 00:25:12;;;;;;;22.65;10.55;;;;;;;;;;5032969;28;20045;-77
2024/01/07 00:27:38;;;;;;;20.92;9.18;;;;;;;;;;5033313;28;20049;-78
2024/01/07 00:30:04;;;;;;;19.23;8.88;;;;;;;;;;5033214;28;20052;-78
2024/01/07 00:32:29;;;;;;;26.23;11.93;;;;;;;;;;5027139;28;20055;-78
2024/01/07 00:34:54;;;;;;;23.98;11.73;;;;;;;;;;5017981;28;20041;-78
2024/01/07 00:37:20;;;;;;;21.85;9.73;;;;;;;;;;5021454;28;20037;-78
2024/01/07 00:39:45;;;;;;;23.50;9.63;;;;;;;;;;5035682;28;20505;-77
2024/01/07 00:42:11;;;;;;;25.23;12.00;;;;;;;;;;5037056;28;20181;-78
2024/01/07 00:44:37;;;;;;;20.50;9.75;;;;;;;;;;5034418;28;20543;-78
2024/01/07 00:47:03;;;;;;;22.52;9.75;;;;;;;;;;5023769;28;20033;-78
2024/01/07 00:49:28;;;;;;;22.23;10.48;;;;;;;;;;5003410;28;20517;-78
2024/01/07 00:51:53;;;;;;;24.13;12.65;;;;;;;;;;5035255;28;20068;-79
2024/01/07 00:54:19;;;;;;;25.17;12.93;;;;;;;;;;5035466;28;20094;-78
2024/01/07 00:56:45;;;;;;;21.92;10.07;;;;;;;;;;5037098;28;20045;-79
2024/01/07 00:59:10;;;;;;;22.27;11.25;;;;;;;;;;5012501;28;20037;-79
2024/01/07 01:01:36;;;;;;;25.88;12.30;;;;;;;;;;5008834;28;20041;-78
2024/01/07 01:04:01;;;;;;;22.00;12.48;;;;;;;;;;5018780;28;20037;-78
2024/01/07 01:06:26;;;;;;;22.27;12.13;;;;;;;;;;5038974;28;20390;-78
2024/01/07 01:08:52;;;;;;;18.92;9.90;;;;;;;;;;5026960;28;20033;-77
2024/01/07 01:11:17;;;;;;;17.98;7.70;;;;;;;;;;5033518;28;20420;-77
2024/01/07 01:13:43;;;;;;;20.80;12.27;;;;;;;;;;5030919;28;20094;-78
2024/01/07 01:16:08;;;;;;;20.58;11.80;;;;;;;;;;5003302;28;20048;-78
2024/01/07 01:18:33;;;;;;;15.73;9.20;;;;;;;;;;5009988;28;20041;-78
2024/01/07 01:20:59;;;;;;;18.20;8.55;;;;;;;;;;5023828;28;20041;-77
2024/01/07 01:23:24;;;;;;;18.00;8.30;;;;;;;;;;5029422;28;20120;-77
2024/01/07 01:25:49;;;;;;;19.48;11.40;;;;;;;;;;5031977;28;20513;-78
2024/01/07 01:28:15;;;;;;;20.40;8.38;;;;;;;;;;5033093;28;20046;-78
2024/01/07 01:30:41;;;;;;;17.15;7.28;;;;;;;;;;5017815;28;20068;-77
2024/01/07 01:33:06;;;;;;;18.48;9.50;;;;;;;;;;5032255;28;20046;-78
2024/01/07 01:35:31;;;;;;;19.70;8.85;;;;;;;;;;5017085;28;20068;-77
2024/01/07 01:37:57;;;;;;;18.63;8.45;;;;;;;;;;5028365;28;20078;-77
2024/01/07 01:40:22;;;;;;;16.88;7.93;;;;;;;;;;5026917;28;20044;-77
2024/01/07 01:42:48;;;;;;;17.45;8.60;;;;;;;;;;5030646;28;20086;-77
2024/01/07 01:45:14;;;;;;;17.55;8.23;;;;;;;;;;5020081;28;20029;-77
2024/01/07 01:47:41;;;;;;;17.77;8.93;;;;;;;;;;5024165;28;20132;-77
2024/01/07 01:50:06;;;;;;;15.13;6.95;;;;;;;;;;5016884;28;20033;-77
2024/01/07 01:52:32;;;;;;;17.08;9.10;;;;;;;;;;5017092;28;20032;-78
2024/01/07 01:54:59;;;;;;;13.63;7.75;;;;;;;;;;5033409;28;20049;-78
2024/01/07 01:57:32;;;;;;;13.07;7.25;;;;;;;;;;5016104;28;20045;-77
2024/01/07 02:00:02;;;;;;;15.15;7.80;;;;;;;;;;4992195;28;20041;-77
2024/01/07 02:02:27;;;;;;;16.38;8.70;;;;;;;;;;5020733;28;20057;-77
2024/01/07 02:04:53;;;;;;;13.93;7.70;;;;;;;;;;5022462;28;20060;-78
2024/01/07 02:07:18;;;;;;;12.25;6.95;;;;;;;;;;5036027;28;20405;-77
2024/01/07 02:09:44;;;;;;;16.77;7.65;;;;;;;;;;5019709;28;20144;-78
2024/01/07 02:12:11;;;;;;;14.18;7.40;;;;;;;;;;5010484;28;20044;-78
2024/01/07 02:14:37;;;;;;;14.55;7.13;;;;;;;;;;5031126;28;20041;-77
2024/01/07 02:17:03;;;;;;;15.68;7.72;;;;;;;;;;5040030;28;20103;-77
2024/01/07 02:19:28;;;;;;;11.60;7.60;;;;;;;;;;5029930;28;20117;-78
2024/01/07 02:21:53;;;;;;;16.27;6.95;;;;;;;;;;5044839;28;20045;-77
2024/01/07 02:24:19;;;;;;;12.32;7.55;;;;;;;;;;5035802;28;20037;-78
2024/01/07 02:26:44;;;;;;;13.23;7.43;;;;;;;;;;5009375;28;20060;-78
2024/01/07 02:29:10;;;;;;;11.35;7.50;;;;;;;;;;5018699;28;20041;-78
2024/01/07 02:31:35;;;;;;;11.35;5.57;;;;;;;;;;5033158;28;20072;-78
2024/01/07 02:34:00;;;;;;;13.95;8.27;;;;;;;;;;5018004;28;20559;-77
2024/01/07 02:36:26;;;;;;;10.27;6.28;;;;;;;;;;5020496;28;20104;-78
2024/01/07 02:38:51;;;;;;;9.75;6.75;;;;;;;;;;5035452;28;20041;-78
2024/01/07 02:41:17;;;;;;;11.65;6.30;;;;;;;;;;5025869;28;20896;-78
2024/01/07 02:43:42;;;;;;;14.63;8.77;;;;;;;;;;5033686;28;20052;-79
2024/01/07 02:46:08;;;;;;;13.55;7.03;;;;;;;;;;5030063;28;20033;-78
2024/01/07 02:48:33;;;;;;;15.80;9.90;;;;;;;;;;5032617;28;20049;-78
2024/01/07 02:50:58;;;;;;;13.73;7.45;;;;;;;;;;5033898;28;20074;-78
2024/01/07 02:53:24;;;;;;;15.25;9.48;;;;;;;;;;5020928;28;20033;-79
2024/01/07 02:55:49;;;;;;;12.35;7.18;;;;;;;;;;5024388;28;20096;-78
2024/01/07 02:58:14;;;;;;;15.70;8.07;;;;;;;;;;5038917;28;20032;-78
2024/01/07 03:00:40;;;;;;;13.13;7.55;;;;;;;;;;5037393;28;20049;-78
2024/01/07 03:03:06;;;;;;;13.30;7.90;;;;;;;;;;5029054;28;20132;-78
2024/01/07 03:05:32;;;;;;;15.45;8.02;;;;;;;;;;5033095;28;20090;-78
2024/01/07 03:07:59;;;;;;;15.95;10.60;;;;;;;;;;5031935;28;20040;-78
2024/01/07 03:10:25;;;;;;;15.88;8.43;;;;;;;;;;5017572;28;20111;-78
2024/01/07 03:12:50;;;;;;;13.50;8.88;;;;;;;;;;5032894;28;20036;-77
2024/01/07 03:15:15;;;;;;;11.43;5.88;;;;;;;;;;5035562;28;20052;-78
2024/01/07 03:17:41;;;;;;;11.45;6.93;;;;;;;;;;5031702;28;20064;-77
2024/01/07 03:20:07;;;;;;;14.55;8.52;;;;;;;;;;5034246;28;20045;-77
2024/01/07 03:22:32;;;;;;;11.30;7.05;;;;;;;;;;5034790;28;20047;-79
2024/01/07 03:24:57;;;;;;;11.68;7.93;;;;;;;;;;5020398;28;20611;-78
2024/01/07 03:27:23;;;;;;;10.63;5.65;;;;;;;;;;5035540;28;20115;-78
2024/01/07 03:29:48;;;;;;;14.05;9.93;;;;;;;;;;5015187;28;20041;-78
2024/01/07 03:32:13;;;;;;;11.57;6.40;;;;;;;;;;5006125;28;20053;-78
2024/01/07 03:34:40;;;;;;;13.25;8.38;;;;;;;;;;5012360;28;20564;-78
2024/01/07 03:37:05;;;;;;;10.13;5.82;;;;;;;;;;5035343;28;20037;-78
2024/01/07 03:39:33;;;;;;;13.63;7.22;;;;;;;;;;5024225;28;20827;-77
2024/01/07 03:41:59;;;;;;;13.48;6.72;;;;;;;;;;5035538;28;20041;-78
2024/01/07 03:44:24;;;;;;;10.35;6.85;;;;;;;;;;5035268;28;20040;-78
2024/01/07 03:46:50;;;;;;;11.82;5.75;;;;;;;;;;5032223;28;20140;-78
2024/01/07 03:49:17;;;;;;;12.88;8.60;;;;;;;;;;5018843;28;20044;-78
2024/01/07 03:51:43;;;;;;;10.80;6.35;;;;;;;;;;5025383;28;20048;-78
2024/01/07 03:54:08;;;;;;;13.77;9.13;;;;;;;;;;5033886;28;20119;-79
2024/01/07 03:56:34;;;;;;;11.63;8.65;;;;;;;;;;5030954;28;20041;-78
2024/01/07 03:58:59;;;;;;;10.95;6.95;;;;;;;;;;5032155;28;20585;-78
2024/01/07 04:01:24;;;;;;;10.98;6.85;;;;;;;;;;5031144;28;20044;-78
2024/01/07 04:03:50;;;;;;;15.38;9.52;;;;;;;;;;5029552;28;20043;-78
2024/01/07 04:06:15;;;;;;;9.15;4.88;;;;;;;;;;5014718;28;20056;-77
2024/01/07 04:08:40;;;;;;;12.80;7.75;;;;;;;;;;5026583;28;20072;-77
2024/01/07 04:11:06;;;;;;;10.65;6.68;;;;;;;;;;5013302;28;20480;-77
2024/01/07 04:13:31;;;;;;;12.40;8.13;;;;;;;;;;5025456;28;20124;-77
2024/01/07 04:15:57;;;;;;;12.75;8.80;;;;;;;;;;5011945;28;20044;-77
2024/01/07 04:18:22;;;;;;;13.13;8.45;;;;;;;;;;5031686;28;20044;-77
2024/01/07 04:20:47;;;;;;;11.68;5.85;;;;;;;;;;5023527;28;20071;-77
2024/01/07 04:23:13;;;;;;;13.30;8.65;;;;;;;;;;5027977;28;20045;-77
2024/01/07 04:25:40;;;;;;;11.55;6.40;;;;;;;;;;5015172;28;20096;-77
2024/01/07 04:28:06;;;;;;;8.23;4.75;;;;;;;;;;5030198;28;20067;-77
2024/01/07 04:30:31;;;;;;;13.68;8.75;;;;;;;;;;5034915;28;20036;-77
2024/01/07 04:32:56;;;;;;;12.27;8.00;;;;;;;;;;5030041;28;20441;-78
2024/01/07 04:35:22;;;;;;;11.63;6.18;;;;;;;;;;5005882;28;20044;-78
2024/01/07 04:37:47;;;;;;;9.27;6.38;;;;;;;;;;5013581;28;20138;-78
2024/01/07 04:40:12;;;;;;;9.05;5.97;;;;;;;;;;5031711;28;20040;-78
2024/01/07 04:42:38;;;;;;;9.10;7.13;;;;;;;;;;5023334;28;20647;-77
2024/01/07 04:45:04;;;;;;;10.20;7.88;;;;;;;;;;5017362;28;20053;-77
2024/01/07 04:47:31;;;;;;;10.90;6.97;;;;;;;;;;5016205;28;20144;-77
2024/01/07 04:49:57;;;;;;;8.18;5.07;;;;;;;;;;5017622;28;20037;-76
2024/01/07 04:52:23;;;;;;;11.95;5.60;;;;;;;;;;5011257;28;20061;-77
2024/01/07 04:54:52;;;;;;;11.02;6.40;;;;;;;;;;5023463;28;20049;-77
2024/01/07 04:57:18;;;;;;;11.80;7.72;;;;;;;;;;5015765;28;20044;-77
2024/01/07 04:59:43;;;;;;;10.20;6.30;;;;;;;;;;5028199;28;20041;-77
2024/01/07 05:02:09;;;;;;;9.15;5.70;;;;;;;;;;4996856;28;20124;-77
2024/01/07 05:04:35;;;;;;;10.88;6.40;;;;;;;;;;5023588;28;20120;-76
2024/01/07 05:07:01;;;;;;;10.98;5.90;;;;;;;;;;5032972;28;20037;-77
2024/01/07 05:09:26;;;;;;;7.95;5.38;;;;;;;;;;5013585;28;20041;-77
2024/01/07 05:11:51;;;;;;;12.40;7.07;;;;;;;;;;5030324;28;20818;-75
2024/01/07 05:14:17;;;;;;;11.13;6.22;;;;;;;;;;5010280;28;20117;-76
2024/01/07 05:16:42;;;;;;;10.75;6.32;;;;;;;;;;5028112;28;20048;-76
2024/01/07 05:19:07;;;;;;;11.30;7.57;;;;;;;;;;5022993;28;20105;-77
2024/01/07 05:21:33;;;;;;;12.10;6.30;;;;;;;;;;5031489;28;20056;-77
2024/01/07 05:23:58;;;;;;;10.85;6.85;;;;;;;;;;5028853;28;20037;-76
2024/01/07 05:26:23;;;;;;;12.23;7.20;;;;;;;;;;5027028;28;20065;-76
2024/01/07 05:28:49;;;;;;;10.25;7.13;;;;;;;;;;5021216;28;20037;-76
2024/01/07 05:31:15;;;;;;;8.43;6.13;;;;;;;;;;5022084;28;20847;-77
2024/01/07 05:33:41;;;;;;;8.88;6.03;;;;;;;;;;5031718;28;21031;-76
2024/01/07 05:36:07;;;;;;;8.32;5.38;;;;;;;;;;5030266;28;20501;-76
2024/01/07 05:38:32;;;;;;;9.55;7.15;;;;;;;;;;5014389;28;20095;-76
2024/01/07 05:40:58;;;;;;;8.60;6.13;;;;;;;;;;5031588;28;20045;-78
2024/01/07 05:43:23;;;;;;;8.25;4.93;;;;;;;;;;5033631;28;20048;-77
2024/01/07 05:45:48;;;;;;;7.95;5.25;;;;;;;;;;5029633;28;20636;-77
2024/01/07 05:48:14;;;;;;;6.68;5.20;;;;;;;;;;5021787;28;20041;-77
2024/01/07 05:50:39;;;;;;;8.57;6.28;;;;;;;;;;5032185;28;20033;-77
2024/01/07 05:53:04;;;;;;;6.20;4.97;;;;;;;;;;5026439;28;20132;-77
2024/01/07 05:55:30;;;;;;;8.13;4.63;;;;;;;;;;5026864;28;20049;-77
2024/01/07 05:57:56;;;;;;;6.30;4.30;;;;;;;;;;5025470;28;20195;-77
2024/01/07 06:00:21;;;;;;;8.43;6.18;;;;;;;;;;5022809;28;20132;-77
2024/01/07 06:02:47;;;;;;;9.50;5.22;;;;;;;;;;5027115;28;20045;-77
2024/01/07 06:05:12;;;;;;;6.13;4.05;;;;;;;;;;5031293;28;20123;-77
2024/01/07 06:07:38;;;;;;;7.15;4.05;;;;;;;;;;5028032;28;20052;-77
2024/01/07 06:10:03;;;;;;;6.55;4.50;;;;;;;;;;5032260;28;20045;-76
2024/01/07 06:12:29;;;;;;;7.63;5.45;;;;;;;;;;5011597;28;20041;-77
2024/01/07 06:14:54;;;;;;;10.40;5.43;;;;;;;;;;5015924;28;20045;-76
2024/01/07 06:17:20;;;;;;;9.93;5.18;;;;;;;;;;5026835;28;20041;-76
2024/01/07 06:19:45;;;;;;;9.65;5.43;;;;;;;;;;4999712;28;20132;-76
2024/01/07 06:22:10;;;;;;;7.43;5.20;;;;;;;;;;5032617;28;20042;-76
2024/01/07 06:24:36;;;;;;;7.78;4.25;;;;;;;;;;5029739;28;20585;-76
2024/01/07 06:27:03;;;;;;;8.40;4.32;;;;;;;;;;5011406;28;20041;-76
2024/01/07 06:29:29;;;;;;;11.77;5.40;;;;;;;;;;5015542;28;20037;-76
2024/01/07 06:31:54;;;;;;;8.55;5.20;;;;;;;;;;5008034;28;20041;-77
2024/01/07 06:34:21;;;;;;;8.27;4.65;;;;;;;;;;5029942;28;20080;-76
2024/01/07 06:36:46;;;;;;;7.32;4.80;;;;;;;;;;5032186;28;20057;-76
2024/01/07 06:39:12;;;;;;;8.52;5.15;;;;;;;;;;5017071;28;20038;-75
2024/01/07 06:41:38;;;;;;;6.82;4.70;;;;;;;;;;5029929;28;20040;-75
2024/01/07 06:44:03;;;;;;;13.35;6.88;;;;;;;;;;4999409;28;20045;-76
2024/01/07 06:46:29;;;;;;;8.75;4.78;;;;;;;;;;5026374;28;20128;-75
2024/01/07 06:48:54;;;;;;;11.32;6.22;;;;;;;;;;5027974;28;20069;-76
2024/01/07 06:51:20;;;;;;;10.07;6.05;;;;;;;;;;5030025;28;20528;-76
2024/01/07 06:53:45;;;;;;;9.68;6.28;;;;;;;;;;5025610;28;20054;-76
2024/01/07 06:56:10;;;;;;;8.95;5.32;;;;;;;;;;5028664;28;20135;-76
2024/01/07 06:58:36;;;;;;;8.48;4.97;;;;;;;;;;5017990;28;20136;-76
2024/01/07 07:01:02;;;;;;;10.57;5.18;;;;;;;;;;5026293;28;20049;-76
2024/01/07 07:03:28;;;;;;;8.27;5.30;;;;;;;;;;5029330;28;20036;-75
2024/01/07 07:05:53;;;;;;;7.72;3.92;;;;;;;;;;5011571;28;20041;-76
2024/01/07 07:08:19;;;;;;;8.48;4.43;;;;;;;;;;5028554;28;20068;-75
2024/01/07 07:10:44;;;;;;;7.63;4.53;;;;;;;;;;5028779;28;20091;-77
2024/01/07 07:13:11;;;;;;;5.75;4.18;;;;;;;;;;4998143;28;20536;-77
2024/01/07 07:15:37;;;;;;;8.45;3.88;;;;;;;;;;5024224;28;20050;-76
2024/01/07 07:18:02;;;;;;;8.77;4.03;;;;;;;;;;5014374;28;20052;-76
2024/01/07 07:20:28;;;;;;;9.18;5.85;;;;;;;;;;5028753;28;20429;-76
2024/01/07 07:22:53;;;;;;;7.30;3.80;;;;;;;;;;5028762;28;20198;-75
2024/01/07 07:25:18;;;;;;;6.15;3.70;;;;;;;;;;5028784;28;20083;-75
2024/01/07 07:27:44;;;;;;;5.50;4.40;;;;;;;;;;5015956;28;20064;-76
2024/01/07 07:30:09;;;;;;;6.78;4.35;;;;;;;;;;5022822;28;20157;-76
2024/01/07 07:32:35;;;;;;;7.80;3.95;;;;;;;;;;5013722;28;20072;-76
2024/01/07 07:35:01;;;;;;;4.22;2.90;;;;;;;;;;5030210;28;20087;-77
2024/01/07 07:37:26;;;;;;;6.75;4.05;;;;;;;;;;5026056;28;20564;-76
2024/01/07 07:39:51;;;;;;;5.82;2.65;;;;;;;;;;5020818;28;20045;-77
2024/01/07 07:42:20;;;;;;;3.65;2.90;;;;;;;;;;5006688;28;20742;-76
2024/01/07 07:44:45;;;;;;;4.28;2.72;;;;;;;;;;5007448;28;20418;-76
2024/01/07 07:47:13;;;;;;;3.60;2.75;;;;;;;;;;4996042;28;20075;-76
2024/01/07 07:49:40;;;;;;;6.75;3.13;;;;;;;;;;5010603;28;20115;-77
2024/01/07 07:52:08;;;;;;;5.65;2.70;;;;;;;;;;5010695;28;20132;-76
2024/01/07 07:54:33;;;;;;;4.60;2.90;;;;;;;;;;4999004;28;20038;-76
2024/01/07 07:56:59;;;;;;;7.28;3.22;;;;;;;;;;4999544;28;20123;-76
2024/01/07 07:59:24;;;;;;;4.88;2.97;;;;;;;;;;5011622;28;20526;-76
2024/01/07 08:01:49;;;;;;;3.70;2.30;;;;;;;;;;5012569;28;20064;-75
2024/01/07 08:04:15;;;;;;;4.25;3.00;;;;;;;;;;5012369;28;20034;-77
2024/01/07 08:06:42;;;;;;;3.50;2.70;;;;;;;;;;5013168;28;20049;-76
2024/01/07 08:09:10;;;;;;;3.72;3.25;;;;;;;;;;4972714;28;20065;-79
2024/01/07 08:11:35;;;;;;;5.10;3.65;;;;;;;;;;5005326;28;20429;-78
2024/01/07 08:14:01;;;;;;;6.63;3.42;;;;;;;;;;5028750;28;20053;-78
2024/01/07 08:16:27;;;;;;;6.07;3.70;;;;;;;;;;5015231;28;20600;-76
2024/01/07 08:18:56;;;;;;;8.32;3.63;;;;;;;;;;5007561;28;20041;-77
2024/01/07 08:21:22;;;;;;;5.10;3.70;;;;;;;;;;5022884;28;20037;-77
2024/01/07 08:23:48;;;;;;;6.00;3.90;;;;;;;;;;5025968;28;20537;-78
2024/01/07 08:26:18;;;;;;;3.97;2.92;;;;;;;;;;5032092;28;20127;-77
2024/01/07 08:28:44;;;;;;;4.85;3.20;;;;;;;;;;5037315;28;20370;-77
2024/01/07 08:31:10;;;;;;;6.13;4.40;;;;;;;;;;5030476;28;20735;-77
2024/01/07 08:33:35;;;;;;;6.15;4.10;;;;;;;;;;5031737;28;20406;-77
2024/01/07 08:36:01;;;;;;;4.88;3.67;;;;;;;;;;5006629;28;20073;-77
2024/01/07 08:38:26;;;;;;;6.55;2.97;;;;;;;;;;5011853;28;20119;-77
2024/01/07 08:40:51;;;;;;;4.95;2.90;;;;;;;;;;5031465;28;20048;-77
2024/01/07 08:43:17;;;;;;;4.38;3.42;;;;;;;;;;5021147;28;20040;-77
2024/01/07 08:45:43;;;;;;;5.53;3.28;;;;;;;;;;5039314;28;20114;-77
2024/01/07 08:48:09;;;;;;;4.22;3.25;;;;;;;;;;5037099;28;20067;-77
2024/01/07 08:50:34;;;;;;;4.40;2.80;;;;;;;;;;5028670;28;21286;-77
2024/01/07 08:53:00;;;;;;;4.15;2.97;;;;;;;;;;5031275;28;20127;-77
2024/01/07 08:55:25;;;;;;;5.55;3.22;;;;;;;;;;5018978;28;20505;-76
2024/01/07 08:57:51;;;;;;;2.80;1.95;;;;;;;;;;5037125;28;20041;-77
2024/01/07 09:00:17;;;;;;;4.88;2.83;;;;;;;;;;5034098;28;20071;-78
2024/01/07 09:02:43;;;;;;;10.18;4.00;;;;;;;;;;5034945;28;20048;-78
2024/01/07 09:05:08;;;;;;;7.47;2.60;;;;;;;;;;4990238;28;20136;-77
2024/01/07 09:07:34;;;;;;;4.63;2.95;;;;;;;;;;5005743;28;20091;-77
2024/01/07 09:10:00;;;;;;;4.85;3.63;;;;;;;;;;5024083;28;20041;-77
2024/01/07 09:12:28;;;;;;;4.90;3.47;;;;;;;;;;5036723;28;20063;-77
2024/01/07 09:14:53;;;;;;;7.68;3.53;;;;;;;;;;5033101;28;20056;-78
2024/01/07 09:17:19;;;;;;;6.13;3.67;;;;;;;;;;5037335;28;20076;-77
2024/01/07 09:19:44;;;;;;;4.45;3.30;;;;;;;;;;5022406;28;20059;-78
2024/01/07 09:22:11;;;;;;;6.05;4.03;;;;;;;;;;5037262;28;20053;-80
2024/01/07 09:24:37;;;;;;;6.13;4.40;;;;;;;;;;5032924;28;20041;-78
2024/01/07 09:27:02;;;;;;;4.28;3.00;;;;;;;;;;5023143;28;20102;-78
2024/01/07 09:29:28;;;;;;;4.57;3.30;;;;;;;;;;5033988;28;20037;-77
2024/01/07 09:31:53;;;;;;;6.10;3.38;;;;;;;;;;5018386;28;20048;-77
2024/01/07 09:34:18;;;;;;;5.60;3.17;;;;;;;;;;5024654;28;20047;-77
2024/01/07 09:36:44;;;;;;;3.95;3.35;;;;;;;;;;5027099;28;20044;-79
2024/01/07 09:39:09;;;;;;;4.60;2.92;;;;;;;;;;5014199;28;20054;-77
2024/01/07 09:41:36;;;;;;;4.70;3.75;;;;;;;;;;5036531;28;20041;-77
2024/01/07 09:44:03;;;;;;;4.20;2.63;;;;;;;;;;5019460;28;20053;-75
2024/01/07 09:46:32;;;;;;;3.70;2.70;;;;;;;;;;5031229;28;20853;-75
2024/01/07 09:48:57;;;;;;;3.40;2.67;;;;;;;;;;5010981;28;20079;-75
2024/01/07 09:51:23;;;;;;;3.47;2.65;;;;;;;;;;5036355;28;20052;-75
2024/01/07 09:53:56;;;;;;;2.53;2.03;;;;;;;;;;5027876;28;20036;-74
2024/01/07 09:56:41;;;;;;;4.05;2.53;;;;;;;;;;5027916;28;20059;-74
2024/01/07 09:59:08;;;;;;;2.65;1.55;;;;;;;;;;5023310;28;20094;-75
2024/01/07 10:01:35;;;;;;;2.08;1.88;;;;;;;;;;5026991;28;20059;-75
2024/01/07 10:04:01;;;;;;;2.20;1.60;;;;;;;;;;5031271;28;20041;-75
2024/01/07 10:06:26;;;;;;;7.03;2.40;;;;;;;;;;5028864;28;20516;-75
2024/01/07 10:08:52;;;;;;;2.20;1.77;;;;;;;;;;5028682;28;20580;-74
2024/01/07 10:11:17;;;;;;;2.42;1.90;;;;;;;;;;5033308;28;20047;-74
2024/01/07 10:13:47;;;;;;;1.75;1.63;;;;;;;;;;5028849;28;20070;-74
2024/01/07 10:16:14;;;;;;;2.05;1.85;;;;;;;;;;5012076;28;20052;-74
2024/01/07 10:18:39;;;;;;;2.22;1.60;;;;;;;;;;5030407;28;20062;-74
2024/01/07 10:21:06;;;;;;;2.20;1.60;;;;;;;;;;5030396;28;20564;-74
2024/01/07 10:23:32;;;;;;;2.53;1.80;;;;;;;;;;5011375;28;20037;-74
2024/01/07 10:26:02;;;;;;;2.47;1.73;;;;;;;;;;5031225;28;20137;-74
2024/01/07 10:28:27;;;;;;;2.72;1.63;;;;;;;;;;5004045;28;20057;-74
2024/01/07 10:30:53;;;;;;;2.15;1.83;;;;;;;;;;5027525;28;20124;-74
2024/01/07 10:33:24;;;;;;;2.80;1.67;;;;;;;;;;5026666;28;20037;-74
2024/01/07 10:36:00;;;;;;;3.08;2.03;;;;;;;;;;5036145;28;20120;-74
2024/01/07 10:38:25;;;;;;;3.95;1.90;;;;;;;;;;5031404;28;20048;-74
2024/01/07 10:40:53;;;;;;;2.25;1.48;;;;;;;;;;5018531;28;20045;-73
2024/01/07 10:43:19;;;;;;;2.15;1.50;;;;;;;;;;5011865;28;20468;-74
2024/01/07 10:45:48;;;;;;;1.75;1.40;;;;;;;;;;5032327;28;20045;-74
2024/01/07 10:48:17;;;;;;;1.50;1.40;;;;;;;;;;5030565;28;20057;-73
2024/01/07 10:50:45;;;;;;;2.42;1.90;;;;;;;;;;5007724;28;20116;-74
2024/01/07 10:53:18;;;;;;;1.98;1.80;;;;;;;;;;5015716;28;20053;-73
2024/01/07 10:55:54;;;;;;;1.50;1.40;;;;;;;;;;5010545;28;20609;-74
2024/01/07 10:58:20;;;;;;;1.95;1.63;;;;;;;;;;5028170;28;20041;-73
2024/01/07 11:00:48;;;;;;;2.67;1.80;;;;;;;;;;5028508;28;20051;-74
2024/01/07 11:03:24;;;;;;;1.85;1.70;;;;;;;;;;5026196;28;20036;-74
2024/01/07 11:05:59;;;;;;;3.97;1.70;;;;;;;;;;5014797;28;20050;-74
2024/01/07 11:08:32;;;;;;;3.17;2.20;;;;;;;;;;5020844;28;20033;-73
2024/01/07 11:11:18;;;;;;;3.03;1.70;;;;;;;;;;5033178;28;20087;-74
2024/01/07 11:13:44;;;;;;;2.03;1.63;;;;;;;;;;5027992;28;20491;-74
2024/01/07 11:16:10;;;;;;;2.40;1.35;;;;;;;;;;4998090;28;20042;-73
2024/01/07 11:18:40;;;;;;;2.10;1.90;;;;;;;;;;5014818;28;20588;-73
2024/01/07 11:21:06;;;;;;;2.80;2.10;;;;;;;;;;5027952;28;20504;-74
2024/01/07 11:23:37;;;;;;;2.65;1.92;;;;;;;;;;5013499;28;20052;-74
2024/01/07 11:26:03;;;;;;;;;;;;;;;;;;5021429;28;20041;-74
2024/01/07 11:28:50;;;;;;;2.67;1.50;;;;;;;;;;5025533;28;19962;-74
2024/01/07 11:31:20;;;;;;;3.33;1.70;;;;;;;;;;4990731;28;20057;-73
2024/01/07 11:33:46;;;;;;;4.43;2.47;;;;;;;;;;5028783;28;20365;-75
2024/01/07 11:36:14;;;;;;;6.43;3.67;;;;;;;;;;5023712;28;20036;-75
2024/01/07 11:38:48;;;;;;;5.38;2.70;;;;;;;;;;5023878;28;20532;-73
2024/01/07 11:41:14;;;;;;;3.92;2.15;;;;;;;;;;5019916;28;20041;-74
2024/01/07 11:44:00;;;;;;;3.08;2.30;;;;;;;;;;4996657;28;20128;-74
2024/01/07 11:46:27;;;;;;;5.57;2.92;;;;;;;;;;5029934;28;20055;-74
2024/01/07 11:48:58;;;;;;;3.33;2.50;;;;;;;;;;5022664;28;20440;-72
2024/01/07 11:51:28;;;;;;;3.13;1.77;;;;;;;;;;5027210;28;20137;-75
2024/01/07 11:53:54;;;;;;;3.97;2.10;;;;;;;;;;5024689;28;20043;-73
2024/01/07 11:56:20;;;;;;;4.00;2.67;;;;;;;;;;5017924;28;20647;-74
2024/01/07 11:58:45;;;;;;;3.53;2.72;;;;;;;;;;5028454;28;20077;-74
2024/01/07 12:01:10;;;;;;;3.40;2.50;;;;;;;;;;5032365;28;20044;-73
2024/01/07 12:03:36;;;;;;;6.88;4.95;;;;;;;;;;5034802;28;20094;-74
2024/01/07 12:06:03;;;;;;;5.50;3.00;;;;;;;;;;5037767;28;20048;-75
2024/01/07 12:08:29;;;;;;;4.43;2.55;;;;;;;;;;5023378;28;20052;-75
2024/01/07 12:10:54;;;;;;;2.90;2.50;;;;;;;;;;5018358;28;20041;-75
2024/01/07 12:13:20;;;;;;;3.15;1.88;;;;;;;;;;5031422;28;20044;-74
2024/01/07 12:15:46;;;;;;;2.33;2.00;;;;;;;;;;5030286;28;20057;-74
2024/01/07 12:18:12;;;;;;;4.30;3.15;;;;;;;;;;5032968;28;20061;-73
2024/01/07 12:20:37;;;;;;;5.07;2.88;;;;;;;;;;5016673;28;20668;-76
2024/01/07 12:23:10;;;;;;;12.95;5.78;;;;;;;;;;5021326;28;20053;-75
2024/01/07 12:25:36;;;;;;;3.40;2.58;;;;;;;;;;5031493;28;20044;-76
2024/01/07 12:28:02;;;;;;;2.97;2.28;;;;;;;;;;5016846;28;20041;-75
2024/01/07 12:30:28;;;;;;;5.72;3.10;;;;;;;;;;5040120;28;20048;-76
2024/01/07 12:32:54;;;;;;;5.80;2.85;;;;;;;;;;5033109;28;20040;-75
2024/01/07 12:35:19;;;;;;;9.93;4.00;;;;;;;;;;5023978;28;20033;-76
2024/01/07 12:37:45;;;;;;;4.43;2.35;;;;;;;;;;5036484;28;20037;-74
2024/01/07 12:40:11;;;;;;;6.63;3.17;;;;;;;;;;5034375;28;20041;-77
2024/01/07 12:42:44;;;;;;;3.22;2.38;;;;;;;;;;5037035;28;20134;-77
2024/01/07 12:45:15;;;;;;;3.35;2.55;;;;;;;;;;5032267;28;20183;-74
2024/01/07 12:47:44;;;;;;;11.45;4.63;;;;;;;;;;5017427;28;20060;-75
2024/01/07 12:50:10;;;;;;;4.72;3.13;;;;;;;;;;4996182;28;20047;-75
2024/01/07 12:52:40;;;;;;;6.25;3.90;;;;;;;;;;5034727;28;20040;-75
2024/01/07 12:55:06;;;;;;;3.63;2.03;;;;;;;;;;5033631;28;20049;-78
2024/01/07 12:57:32;;;;;;;6.10;3.25;;;;;;;;;;5019696;28;20131;-77
2024/01/07 12:59:58;;;;;;;5.80;3.33;;;;;;;;;;5028759;28;20037;-76
2024/01/07 13:02:23;;;;;;;20.15;5.90;;;;;;;;;;5018672;28;20048;-77
2024/01/07 13:04:50;;;;;;;8.88;3.75;;;;;;;;;;5037693;28;20044;-77
2024/01/07 13:07:15;;;;;;;9.45;4.72;;;;;;;;;;5016346;28;20032;-75
2024/01/07 13:09:40;;;;;;;10.50;5.00;;;;;;;;;;5031146;28;20055;-77
2024/01/07 13:12:06;;;;;;;4.10;2.40;;;;;;;;;;5022776;28;20157;-73
2024/01/07 13:14:31;;;;;;;3.10;2.75;;;;;;;;;;5030715;28;20068;-75
2024/01/07 13:16:57;;;;;;;3.88;2.70;;;;;;;;;;5022822;28;20037;-75
2024/01/07 13:19:22;;;;;;;5.80;3.10;;;;;;;;;;5032214;28;20049;-76
2024/01/07 13:21:48;;;;;;;2.70;2.17;;;;;;;;;;5032480;28;20560;-75
2024/01/07 13:24:13;;;;;;;3.88;2.10;;;;;;;;;;5017028;28;20044;-76
2024/01/07 13:26:38;;;;;;;4.40;2.38;;;;;;;;;;5037641;28;20052;-75
2024/01/07 13:29:04;;;;;;;5.32;3.38;;;;;;;;;;5039249;28;20068;-75
2024/01/07 13:31:29;;;;;;;5.68;3.30;;;;;;;;;;5021030;28;20114;-75
2024/01/07 13:33:55;;;;;;;2.40;2.00;;;;;;;;;;5018896;28;20110;-77
2024/01/07 13:36:20;;;;;;;3.40;2.58;;;;;;;;;;5018033;28;20080;-76
2024/01/07 13:38:49;;;;;;;5.53;2.50;;;;;;;;;;5015946;28;20594;-76
2024/01/07 13:41:15;;;;;;;3.78;3.08;;;;;;;;;;4998891;28;20030;-75
2024/01/07 13:43:40;;;;;;;3.60;2.22;;;;;;;;;;5011336;28;20854;-74
2024/01/07 13:46:06;;;;;;;3.47;2.75;;;;;;;;;;5005366;28;20032;-76
2024/01/07 13:48:31;;;;;;;4.22;2.80;;;;;;;;;;5006848;28;21426;-76
2024/01/07 13:50:58;;;;;;;4.88;3.15;;;;;;;;;;4983348;28;20168;-75
2024/01/07 13:53:23;;;;;;;4.43;3.03;;;;;;;;;;5013125;28;20053;-75
2024/01/07 13:55:48;;;;;;;4.03;2.63;;;;;;;;;;5015462;28;20037;-76
2024/01/07 13:58:15;;;;;;;8.43;3.83;;;;;;;;;;5014097;28;20144;-74
2024/01/07 14:00:41;;;;;;;5.25;2.67;;;;;;;;;;5004542;28;20049;-76
2024/01/07 14:03:06;;;;;;;6.05;3.13;;;;;;;;;;5009160;28;20094;-75
2024/01/07 14:05:32;;;;;;;6.32;3.25;;;;;;;;;;4995089;28;20041;-76
2024/01/07 14:07:57;;;;;;;6.70;3.47;;;;;;;;;;4981736;28;20209;-74
2024/01/07 14:10:22;;;;;;;5.68;2.15;;;;;;;;;;4993993;28;20049;-75
2024/01/07 14:12:48;;;;;;;4.82;2.72;;;;;;;;;;5009812;28;20056;-76
2024/01/07 14:15:13;;;;;;;5.00;2.88;;;;;;;;;;5001518;28;20060;-74
2024/01/07 14:17:39;;;;;;;4.82;2.35;;;;;;;;;;5015650;28;20041;-76
2024/01/07 14:20:07;;;;;;;5.35;3.35;;;;;;;;;;5011048;28;20777;-76
2024/01/07 14:22:33;;;;;;;7.45;3.53;;;;;;;;;;5009732;28;20465;-75
2024/01/07 14:24:58;;;;;;;8.23;3.15;;;;;;;;;;5006740;28;20041;-76
2024/01/07 14:27:24;;;;;;;7.07;3.50;;;;;;;;;;4999403;28;20041;-74
2024/01/07 14:29:50;;;;;;;5.43;3.45;;;;;;;;;;5007534;28;20037;-75
2024/01/07 14:32:16;;;;;;;7.78;2.08;;;;;;;;;;5009570;28;20103;-75